14:53
Airports
Links
Donate
Help keep this website running!
PayPal
Bitcoin
METAR
TKPN 161400Z 10011KT 9999 BKN020 27/21 Q1018
Current Weather Conditions at TKPN
MVFR 14:00:00 16-01-18
Altimeter:30.06 hg
Temp:27.0°c 81°f
Dew point:21.0°c 70°f
Wind:11 knots, 12.7 mph, 6 m/s, from 100°
Visibility:6.21 statute miles
2000(BKN) Broken
Past METAR reports
MVFR 13:00:00 16-01-18
Altimeter:30.03 hg
Temp:27.0°c 81°f
Dew point:21.0°c 70°f
Wind:9 knots, 10.4 mph, 5 m/s, from 100°
Visibility:6.21 statute miles
2100(BKN) Broken
TKPN 161300Z 10009KT 9999 BKN021 27/21 Q1017
VFR 11:00:00 16-01-18
Altimeter:30.00 hg
Temp:26.0°c 79°f
Dew point:22.0°c 72°f
Wind:10 knots, 11.5 mph, 5 m/s, from 90°
Visibility:6.21 statute miles
1800(SCT) Scattered
TKPN 161100Z 09010KT 9999 SCT018 26/22 Q1016
VFR 10:00:00 16-01-18
Altimeter:29.97 hg
Temp:26.0°c 79°f
Dew point:21.0°c 70°f
Wind:8 knots, 9.2 mph, 4 m/s, from 110°
Visibility:6.21 statute miles
4800(SCT) Scattered
2300(SCT) Scattered
TKPN 161000Z 11008KT 9999 SCT023 SCT048 26/21 Q1015
TAF
TAF TKPN 161100Z 1612/1712 09010KT 9999 SCT020 PROB40 TEMPO 1615/1701 SHRA
Forecast at TKPN
12:00 16-01-18 to 12:00 17-01-18
Wind:10 Knots from 90°
Visibility:6.21 statute miles
2000SCT Scattered
TEMPO 15:00 16-01-18 to 01:00 17-01-18
40% SHRA